createdAt,value
2022-08-11T00:00:34.507Z,1.90
2022-08-11T00:01:10.645Z,1.80
2022-08-11T00:01:50.823Z,1.83
2022-08-11T00:02:34.233Z,1.70
2022-08-11T00:03:08.274Z,1.67
2022-08-11T00:03:49.266Z,1.57
2022-08-11T00:04:23.898Z,1.40
2022-08-11T00:04:57.065Z,1.77
2022-08-11T00:05:32.478Z,1.73
2022-08-11T00:06:05.209Z,1.80
2022-08-11T00:06:38.626Z,1.67
2022-08-11T00:07:13.759Z,1.60
2022-08-11T00:07:48.952Z,1.90
2022-08-11T00:08:23.584Z,1.90
2022-08-11T00:09:00.418Z,1.57
2022-08-11T00:09:39.278Z,1.80
2022-08-11T00:10:13.933Z,1.80
2022-08-11T00:10:55.438Z,1.40
2022-08-11T00:11:38.455Z,1.67
2022-08-11T00:12:18.170Z,2.20
2022-08-11T00:12:55.124Z,1.93
2022-08-11T00:13:33.321Z,1.73
2022-08-11T00:14:17.819Z,1.70
2022-08-11T00:14:57.769Z,1.77
2022-08-11T00:15:44.034Z,1.50
2022-08-11T00:16:18.738Z,1.80
2022-08-11T00:16:55.794Z,1.90
2022-08-11T00:17:32.438Z,1.53
2022-08-11T00:18:05.882Z,1.47
2022-08-11T00:18:40.657Z,2.00
2022-08-11T00:19:16.387Z,2.10
2022-08-11T00:20:16.312Z,1.80
2022-08-11T00:20:53.011Z,1.80
2022-08-11T00:21:59.733Z,1.63
2022-08-11T00:22:24.517Z,1.40
2022-08-11T00:23:02.357Z,1.70
2022-08-11T00:23:35.102Z,1.70
2022-08-11T00:24:10.741Z,1.50
2022-08-11T00:24:53.492Z,1.77
2022-08-11T00:25:30.444Z,1.77
2022-08-11T00:26:07.808Z,1.63
2022-08-11T00:26:50.709Z,1.57
2022-08-11T00:27:32.532Z,1.70
2022-08-11T00:28:07.905Z,1.70
2022-08-11T00:28:41.911Z,1.90
2022-08-11T00:29:15.442Z,1.70
2022-08-11T00:29:56.207Z,1.80
2022-08-11T00:30:38.942Z,1.83
2022-08-11T00:31:23.475Z,2.30
2022-08-11T00:31:57.689Z,1.70
2022-08-11T00:32:30.762Z,2.10
2022-08-11T00:33:05.903Z,1.87
2022-08-11T00:33:44.616Z,1.70
2022-08-11T00:34:19.776Z,1.93
2022-08-11T00:35:51.814Z,2.03
2022-08-11T00:35:52.013Z,1.70
2022-08-11T00:36:42.038Z,1.60
2022-08-11T00:37:20.145Z,1.97
2022-08-11T00:37:55.224Z,1.77
2022-08-11T00:38:33.282Z,1.77
2022-08-11T00:39:07.488Z,1.60
2022-08-11T00:39:46.996Z,1.63
2022-08-11T00:40:25.449Z,2.10
2022-08-11T00:41:03.764Z,1.60
2022-08-11T00:41:43.479Z,1.60
2022-08-11T00:42:27.263Z,2.20
2022-08-11T00:43:05.233Z,2.07
2022-08-11T00:43:54.934Z,1.60
2022-08-11T00:44:37.335Z,1.60
2022-08-11T00:45:11.611Z,1.87
2022-08-11T00:45:57.414Z,1.60
2022-08-11T00:46:38.429Z,1.67
2022-08-11T00:47:17.798Z,2.10
2022-08-11T00:48:00.453Z,2.10
2022-08-11T00:48:37.788Z,1.80
2022-08-11T00:49:16.751Z,1.87
2022-08-11T00:50:11.366Z,1.43
2022-08-11T00:51:04.658Z,1.57
2022-08-11T00:52:02.188Z,1.80
2022-08-11T00:52:54.211Z,1.93
2022-08-11T00:53:35.586Z,2.03
2022-08-11T00:54:26.759Z,1.80
2022-08-11T00:55:37.657Z,1.63
2022-08-11T00:56:54.727Z,2.03
2022-08-11T00:57:56.861Z,1.90
2022-08-11T00:59:03.618Z,1.97
2022-08-11T01:00:03.632Z,1.60
2022-08-11T01:00:52.634Z,1.47
2022-08-11T01:01:37.644Z,1.63
2022-08-11T01:02:15.615Z,1.83
2022-08-11T01:03:13.138Z,1.53
2022-08-11T01:04:00.649Z,1.97
2022-08-11T01:05:22.786Z,1.50
2022-08-11T01:06:22.934Z,1.63
2022-08-11T01:08:01.273Z,1.97
2022-08-11T01:08:58.275Z,2.00
2022-08-11T01:09:50.503Z,1.93
2022-08-11T01:10:43.137Z,1.80
2022-08-11T01:11:28.280Z,1.90
2022-08-11T01:12:21.744Z,1.77
2022-08-11T01:13:08.348Z,1.80
2022-08-11T01:14:35.169Z,2.00
2022-08-11T01:15:40.330Z,1.83
2022-08-11T01:16:37.479Z,1.60
2022-08-11T01:17:45.918Z,1.80
2022-08-11T01:18:53.593Z,1.57
2022-08-11T01:20:46.150Z,1.80
2022-08-11T01:21:41.357Z,1.80
2022-08-11T01:22:52.592Z,1.80
2022-08-11T01:24:08.905Z,1.83
2022-08-11T01:25:17.577Z,2.00
2022-08-11T01:26:02.784Z,1.70
2022-08-11T01:27:22.439Z,1.70
2022-08-11T01:28:25.017Z,1.80
2022-08-11T01:29:49.276Z,1.70
2022-08-11T01:30:43.958Z,1.80
2022-08-11T01:31:40.300Z,1.57
2022-08-11T01:32:51.170Z,1.90
2022-08-11T01:33:57.061Z,1.60
2022-08-11T01:34:59.381Z,2.20
2022-08-11T01:35:47.497Z,1.53
2022-08-11T01:36:45.754Z,1.83
2022-08-11T01:38:06.775Z,1.67
2022-08-11T01:39:09.073Z,1.50
2022-08-11T01:40:24.017Z,2.20
2022-08-11T01:41:49.417Z,1.80
2022-08-11T01:43:14.239Z,1.70
2022-08-11T01:44:38.190Z,1.97
2022-08-11T01:45:36.453Z,1.90
2022-08-11T01:46:16.271Z,2.20
2022-08-11T01:46:52.617Z,1.90
2022-08-11T01:47:52.961Z,1.63
2022-08-11T01:48:39.090Z,1.63
2022-08-11T01:50:05.722Z,2.17
2022-08-11T01:50:20.969Z,1.80
2022-08-11T01:51:03.797Z,2.03
2022-08-11T01:51:52.124Z,1.90
2022-08-11T01:52:33.290Z,2.17
2022-08-11T01:53:16.990Z,1.80
2022-08-11T01:53:57.937Z,1.77
2022-08-11T01:54:34.180Z,1.70
2022-08-11T01:55:14.745Z,1.87
2022-08-11T01:55:58.118Z,2.00
2022-08-11T01:56:40.963Z,1.90
2022-08-11T01:57:26.187Z,1.70
2022-08-11T01:58:15.420Z,1.90
2022-08-11T01:58:53.895Z,1.90
2022-08-11T01:59:29.534Z,2.10
2022-08-11T02:00:11.932Z,1.57
2022-08-11T02:00:53.901Z,2.13
2022-08-11T02:01:41.306Z,1.83
2022-08-11T02:02:45.647Z,1.53
2022-08-11T02:03:25.845Z,1.97
2022-08-11T02:04:03.434Z,1.70
2022-08-11T02:04:42.370Z,1.70
2022-08-11T02:05:46.907Z,1.67
2022-08-11T02:06:44.398Z,2.00
2022-08-11T02:07:22.621Z,2.00
2022-08-11T02:08:03.884Z,1.90
2022-08-11T02:08:50.715Z,2.13
2022-08-11T02:09:58.968Z,2.00
2022-08-11T02:10:51.596Z,2.00
2022-08-11T02:11:35.160Z,1.80
2022-08-11T02:12:15.910Z,2.10
2022-08-11T02:12:52.957Z,1.37
2022-08-11T02:13:37.125Z,1.80
2022-08-11T02:14:24.190Z,2.03
2022-08-11T02:15:05.012Z,2.10
2022-08-11T02:15:42.563Z,1.90
2022-08-11T02:16:24.881Z,1.97
2022-08-11T02:17:13.325Z,2.50
2022-08-11T02:17:54.933Z,1.87
2022-08-11T02:18:55.827Z,1.90
2022-08-11T02:19:53.056Z,2.00
2022-08-11T02:20:42.685Z,1.90
2022-08-11T02:21:32.910Z,1.87
2022-08-11T02:22:29.169Z,2.07
2022-08-11T02:23:58.678Z,1.70
2022-08-11T02:24:19.369Z,1.90
2022-08-11T02:24:57.905Z,2.03
2022-08-11T02:25:37.910Z,1.60
2022-08-11T02:26:17.617Z,2.03
2022-08-11T02:26:57.797Z,1.97
2022-08-11T02:27:41.532Z,1.53
2022-08-11T02:28:29.142Z,1.70
2022-08-11T02:29:12.130Z,1.80
2022-08-11T02:29:52.152Z,1.80
2022-08-11T02:30:29.077Z,1.83
2022-08-11T02:32:05.091Z,1.97
2022-08-11T02:32:35.329Z,2.03
2022-08-11T02:33:24.986Z,1.83
2022-08-11T02:34:04.896Z,2.00
2022-08-11T02:34:59.318Z,1.80
2022-08-11T02:35:45.853Z,2.20
2022-08-11T02:36:21.310Z,1.60
2022-08-11T02:37:23.506Z,2.00
2022-08-11T02:38:09.202Z,1.87
2022-08-11T02:38:49.108Z,2.00
2022-08-11T02:39:24.934Z,1.80
2022-08-11T02:40:11.161Z,1.63
2022-08-11T02:40:51.342Z,1.60
2022-08-11T02:41:41.505Z,1.90
2022-08-11T02:42:33.402Z,2.10
2022-08-11T02:43:27.506Z,2.27
2022-08-11T02:44:11.278Z,2.07
2022-08-11T02:44:49.721Z,2.00
2022-08-11T02:45:48.945Z,2.20
2022-08-11T02:46:25.314Z,1.70
2022-08-11T02:47:04.653Z,2.00
2022-08-11T02:48:06.408Z,1.90
2022-08-11T02:49:04.828Z,2.00
2022-08-11T02:50:00.093Z,1.97
2022-08-11T02:50:49.290Z,2.20
2022-08-11T02:51:28.121Z,1.83
2022-08-11T02:52:11.897Z,2.10
2022-08-11T02:52:47.890Z,1.90
2022-08-11T02:53:26.801Z,2.20
2022-08-11T02:54:10.174Z,2.10
2022-08-11T02:54:46.349Z,2.00
2022-08-11T02:55:48.898Z,1.80
2022-08-11T02:56:25.473Z,1.60
2022-08-11T02:57:02.774Z,2.10
2022-08-11T02:57:38.475Z,2.03
2022-08-11T02:58:16.453Z,1.97
2022-08-11T02:59:15.090Z,1.80
2022-08-11T02:59:51.606Z,2.30
2022-08-11T03:00:29.753Z,1.93
2022-08-11T03:01:11.628Z,1.80
2022-08-11T03:01:49.362Z,2.00
2022-08-11T03:02:35.120Z,1.73
2022-08-11T03:03:21.546Z,2.00
2022-08-11T03:04:06.831Z,1.90
2022-08-11T03:05:01.972Z,2.00
2022-08-11T03:05:53.812Z,2.20
2022-08-11T03:06:36.280Z,1.97
2022-08-11T03:07:28.702Z,2.57
2022-08-11T03:08:32.991Z,1.63
2022-08-11T03:09:10.514Z,2.10
2022-08-11T03:09:47.667Z,2.17
2022-08-11T03:10:31.641Z,1.83
2022-08-11T03:11:37.044Z,2.00
2022-08-11T03:12:28.718Z,1.47
2022-08-11T03:13:23.788Z,2.10
2022-08-11T03:14:20.570Z,1.90
2022-08-11T03:15:13.670Z,2.20
2022-08-11T03:16:05.135Z,2.10
2022-08-11T03:16:49.731Z,2.00
2022-08-11T03:17:30.042Z,2.10
2022-08-11T03:18:11.614Z,1.90
2022-08-11T03:18:58.101Z,2.30
2022-08-11T03:19:37.125Z,2.20
2022-08-11T03:20:33.217Z,1.80
2022-08-11T03:21:16.533Z,1.73
2022-08-11T03:22:02.933Z,1.93
2022-08-11T03:22:43.854Z,2.23
2022-08-11T03:23:23.486Z,1.80
2022-08-11T03:24:01.833Z,1.90
2022-08-11T03:24:57.914Z,1.70
2022-08-11T03:25:35.180Z,2.07
2022-08-11T03:26:18.927Z,1.70
2022-08-11T03:27:02.035Z,2.20
2022-08-11T03:27:42.209Z,2.20
2022-08-11T03:28:33.402Z,2.20
2022-08-11T03:29:18.353Z,2.00
2022-08-11T03:30:06.194Z,2.10
2022-08-11T03:30:47.550Z,1.80
2022-08-11T03:31:24.959Z,2.00
2022-08-11T03:32:06.962Z,2.00
2022-08-11T03:33:12.190Z,1.97
2022-08-11T03:34:06.592Z,2.13
2022-08-11T03:34:40.342Z,1.90
2022-08-11T03:35:14.941Z,1.90
2022-08-11T03:36:06.293Z,2.00
2022-08-11T03:37:39.831Z,2.20
2022-08-11T03:38:15.649Z,1.93
2022-08-11T03:39:00.389Z,1.87
2022-08-11T03:39:52.714Z,1.60
2022-08-11T03:40:57.338Z,2.20
2022-08-11T03:42:01.646Z,1.90
2022-08-11T03:42:43.751Z,2.30
2022-08-11T03:43:27.442Z,1.80
2022-08-11T03:44:07.312Z,2.30
2022-08-11T03:44:53.546Z,2.13
2022-08-11T03:45:31.574Z,2.30
2022-08-11T03:46:10.775Z,1.97
2022-08-11T03:47:10.599Z,1.80
2022-08-11T03:48:02.605Z,1.43
2022-08-11T03:48:46.205Z,1.90
2022-08-11T03:49:30.257Z,1.73
2022-08-11T03:50:13.573Z,1.70
2022-08-11T03:51:01.451Z,1.93
2022-08-11T03:51:51.759Z,1.90
2022-08-11T03:52:35.825Z,2.10
2022-08-11T03:53:14.365Z,2.00
2022-08-11T03:54:07.456Z,2.27
2022-08-11T03:54:49.855Z,2.20
2022-08-11T03:55:32.089Z,2.10
2022-08-11T03:56:22.732Z,2.00
2022-08-11T03:57:26.347Z,2.20
2022-08-11T03:58:31.956Z,2.20
2022-08-11T03:59:32.193Z,2.13
2022-08-11T04:00:34.091Z,2.20
2022-08-11T04:01:25.549Z,2.60
2022-08-11T04:02:20.818Z,1.93
2022-08-11T04:03:20.414Z,2.30
2022-08-11T04:04:15.579Z,2.20
2022-08-11T04:05:02.335Z,2.03
2022-08-11T04:06:03.537Z,2.33
2022-08-11T04:06:53.253Z,2.80
2022-08-11T04:07:55.156Z,2.73
2022-08-11T04:08:56.577Z,2.50
2022-08-11T04:10:13.040Z,2.90
2022-08-11T04:11:07.726Z,2.33
2022-08-11T04:12:05.302Z,2.17
2022-08-11T04:13:18.302Z,2.17
2022-08-11T04:14:27.182Z,2.67
2022-08-11T04:15:35.753Z,2.77
2022-08-11T04:16:30.826Z,2.13
2022-08-11T04:17:27.193Z,2.07
2022-08-11T04:18:35.962Z,2.43
2022-08-11T04:19:46.893Z,2.60
2022-08-11T04:20:35.117Z,2.53
2022-08-11T04:21:30.010Z,2.40
2022-08-11T04:22:23.644Z,2.50
2022-08-11T04:24:34.443Z,2.03
2022-08-11T04:24:38.244Z,2.50
2022-08-11T04:25:55.867Z,2.60
2022-08-11T04:26:48.847Z,2.40
2022-08-11T04:27:46.068Z,2.17
2022-08-11T04:28:50.252Z,2.20
2022-08-11T04:30:00.989Z,2.53
2022-08-11T04:30:42.314Z,3.10
2022-08-11T04:31:52.085Z,2.87
2022-08-11T04:32:40.982Z,2.27
2022-08-11T04:33:37.799Z,2.30
2022-08-11T04:34:45.281Z,1.80
2022-08-11T04:35:34.721Z,2.60
2022-08-11T04:36:41.434Z,2.00
2022-08-11T04:37:38.450Z,2.57
2022-08-11T04:38:41.558Z,2.57
2022-08-11T04:39:20.395Z,2.23
2022-08-11T04:40:13.971Z,2.37
2022-08-11T04:41:35.810Z,2.20
2022-08-11T04:42:35.771Z,2.33
2022-08-11T04:44:02.691Z,2.50
2022-08-11T04:45:00.812Z,2.17
2022-08-11T04:45:47.221Z,2.50
2022-08-11T04:46:34.692Z,2.37
2022-08-11T04:48:03.312Z,2.40
2022-08-11T04:49:03.922Z,2.63
2022-08-11T04:50:10.558Z,2.80
2022-08-11T04:51:23.805Z,2.23
2022-08-11T04:52:49.265Z,2.30
2022-08-11T04:53:52.247Z,2.40
2022-08-11T04:54:51.817Z,2.20
2022-08-11T04:55:57.821Z,2.40
2022-08-11T04:56:48.532Z,2.20
2022-08-11T04:57:47.383Z,2.40
2022-08-11T04:58:38.128Z,2.60
2022-08-11T05:00:13.105Z,2.67
2022-08-11T05:01:08.248Z,2.33
2022-08-11T05:01:56.241Z,2.10
2022-08-11T05:03:07.908Z,2.40
2022-08-11T05:03:54.730Z,2.70
2022-08-11T05:05:07.437Z,2.20
2022-08-11T05:05:57.688Z,2.60
2022-08-11T05:06:56.119Z,2.50
2022-08-11T05:08:01.202Z,2.40
2022-08-11T05:08:58.279Z,2.40
2022-08-11T05:09:48.426Z,2.43
2022-08-11T05:10:31.698Z,2.13
2022-08-11T05:11:16.731Z,2.73
2022-08-11T05:12:30.094Z,2.47
2022-08-11T05:13:18.531Z,2.30
2022-08-11T05:14:07.653Z,2.50
2022-08-11T05:14:57.178Z,2.67
2022-08-11T05:15:51.967Z,2.40
2022-08-11T05:16:43.302Z,2.57
2022-08-11T05:17:32.713Z,2.47
2022-08-11T05:18:28.656Z,2.30
2022-08-11T05:19:17.357Z,2.33
2022-08-11T05:20:04.842Z,2.23
2022-08-11T05:20:59.270Z,2.50
2022-08-11T05:21:48.353Z,2.50
2022-08-11T05:22:36.215Z,2.50
2022-08-11T05:23:24.308Z,2.20
2022-08-11T05:24:13.862Z,2.43
2022-08-11T05:25:02.926Z,2.30
2022-08-11T05:26:44.509Z,2.17
2022-08-11T05:27:02.233Z,2.37
2022-08-11T05:27:54.607Z,2.77
2022-08-11T05:28:47.906Z,2.67
2022-08-11T05:29:44.458Z,2.60
2022-08-11T05:30:34.522Z,2.93
2022-08-11T05:31:27.493Z,2.40
2022-08-11T05:32:16.650Z,2.83
2022-08-11T05:33:13.099Z,2.97
2022-08-11T05:34:03.652Z,2.30
2022-08-11T05:34:55.952Z,2.50
2022-08-11T05:36:00.069Z,2.30
2022-08-11T05:36:43.750Z,2.10
2022-08-11T05:37:28.061Z,2.43
2022-08-11T05:38:16.029Z,2.33
2022-08-11T05:39:08.671Z,3.00
2022-08-11T05:40:00.173Z,2.53
2022-08-11T05:40:50.946Z,2.70
2022-08-11T05:41:42.798Z,2.50
2022-08-11T05:42:32.773Z,2.63
2022-08-11T05:43:27.763Z,2.70
2022-08-11T05:44:19.869Z,2.33
2022-08-11T05:45:15.599Z,2.30
2022-08-11T05:46:13.277Z,2.87
2022-08-11T05:47:00.889Z,2.37
2022-08-11T05:47:49.943Z,2.10
2022-08-11T05:48:37.647Z,2.57
2022-08-11T05:49:25.513Z,2.30
2022-08-11T05:50:13.541Z,2.67
2022-08-11T05:51:10.540Z,2.10
2022-08-11T05:52:05.855Z,2.20
2022-08-11T05:53:02.288Z,2.33
2022-08-11T05:53:51.430Z,2.20
2022-08-11T05:54:39.005Z,2.00
2022-08-11T05:55:26.787Z,2.10
2022-08-11T05:56:14.922Z,2.27
2022-08-11T05:56:54.292Z,1.77
2022-08-11T05:57:48.301Z,2.23
2022-08-11T05:58:26.197Z,2.30
2022-08-11T05:59:01.285Z,1.97
2022-08-11T05:59:34.411Z,2.23
2022-08-11T06:00:10.479Z,2.23
2022-08-11T06:00:48.152Z,2.40
2022-08-11T06:01:25.707Z,2.23
2022-08-11T06:02:01.745Z,1.87
2022-08-11T06:02:37.044Z,1.87
2022-08-11T06:03:11.135Z,1.73
2022-08-11T06:04:00.487Z,1.93
2022-08-11T06:04:35.978Z,2.00
2022-08-11T06:05:09.312Z,2.40
2022-08-11T06:05:44.098Z,2.33
2022-08-11T06:06:19.313Z,2.60
2022-08-11T06:06:55.204Z,2.00
2022-08-11T06:07:49.621Z,1.50
2022-08-11T06:08:29.168Z,1.87
2022-08-11T06:09:02.388Z,2.00
2022-08-11T06:09:38.702Z,1.80
2022-08-11T06:10:11.381Z,2.07
2022-08-11T06:10:45.328Z,2.30
2022-08-11T06:11:18.301Z,2.13
2022-08-11T06:11:53.571Z,2.47
2022-08-11T06:12:29.614Z,2.27
2022-08-11T06:13:02.840Z,2.00
2022-08-11T06:13:46.727Z,2.20
2022-08-11T06:14:19.793Z,2.00
2022-08-11T06:14:55.848Z,1.83
2022-08-11T06:15:31.793Z,1.80
2022-08-11T06:16:07.017Z,2.00
2022-08-11T06:16:41.970Z,2.10
2022-08-11T06:17:17.165Z,1.80
2022-08-11T06:17:51.418Z,2.10
2022-08-11T06:18:24.306Z,3.10
2022-08-11T06:18:56.885Z,4.43
2022-08-11T06:19:37.446Z,6.37
2022-08-11T06:20:13.301Z,7.00
2022-08-11T06:20:52.816Z,10.10
2022-08-11T06:21:25.367Z,12.23
2022-08-11T06:21:57.775Z,11.33
2022-08-11T06:22:33.637Z,11.43
2022-08-11T06:23:07.525Z,12.77
2022-08-11T06:23:42.431Z,11.90
2022-08-11T06:24:15.761Z,12.73
2022-08-11T06:24:55.254Z,13.07
2022-08-11T06:25:31.682Z,13.57
2022-08-11T06:26:11.679Z,13.70
2022-08-11T06:27:09.218Z,13.20
2022-08-11T06:27:46.070Z,12.83
2022-08-11T06:28:21.353Z,12.30
2022-08-11T06:28:58.718Z,12.30
2022-08-11T06:29:38.044Z,10.80
2022-08-11T06:30:35.150Z,11.47
2022-08-11T06:31:15.906Z,12.73
2022-08-11T06:31:56.458Z,10.30
2022-08-11T06:32:31.377Z,9.17
2022-08-11T06:33:08.590Z,9.37
2022-08-11T06:33:53.819Z,8.50
2022-08-11T06:34:36.229Z,8.30
2022-08-11T06:35:19.060Z,7.87
2022-08-11T06:36:00.075Z,7.90
2022-08-11T06:36:35.764Z,7.80
2022-08-11T06:37:21.036Z,6.20
2022-08-11T06:38:06.450Z,6.20
2022-08-11T06:38:59.957Z,6.20
2022-08-11T06:39:41.262Z,5.83
2022-08-11T06:40:20.976Z,4.83
2022-08-11T06:41:10.469Z,4.10
2022-08-11T06:41:49.957Z,4.87
2022-08-11T06:42:37.119Z,4.40
2022-08-11T06:43:20.990Z,3.80
2022-08-11T06:44:06.836Z,4.37
2022-08-11T06:44:45.302Z,4.50
2022-08-11T06:45:27.567Z,4.00
2022-08-11T06:46:05.943Z,3.97
2022-08-11T06:46:40.394Z,3.47
2022-08-11T06:47:13.793Z,3.53
2022-08-11T06:47:50.539Z,3.37
2022-08-11T06:48:23.941Z,2.87
2022-08-11T06:48:56.684Z,3.30
2022-08-11T06:49:50.457Z,3.20
2022-08-11T06:50:38.725Z,3.23
2022-08-11T06:51:16.973Z,3.73
2022-08-11T06:51:49.710Z,3.00
2022-08-11T06:52:34.524Z,3.23
2022-08-11T06:53:12.874Z,2.93
2022-08-11T06:54:03.089Z,2.90
2022-08-11T06:54:44.394Z,2.77
2022-08-11T06:55:55.910Z,2.70
2022-08-11T06:57:06.726Z,2.67
2022-08-11T06:58:02.680Z,2.57
2022-08-11T06:58:54.369Z,2.63
2022-08-11T06:59:44.557Z,2.50
2022-08-11T07:00:33.467Z,2.80
2022-08-11T07:01:11.697Z,2.90
2022-08-11T07:01:51.537Z,2.30
2022-08-11T07:02:34.026Z,2.57
2022-08-11T07:03:09.327Z,2.67
2022-08-11T07:03:48.184Z,2.33
2022-08-11T07:04:24.844Z,2.53
2022-08-11T07:05:01.214Z,2.60
2022-08-11T07:05:45.558Z,2.40
2022-08-11T07:06:50.577Z,2.57
2022-08-11T07:08:34.089Z,2.07
2022-08-11T07:09:42.980Z,2.50
2022-08-11T07:10:53.300Z,3.17
2022-08-11T07:12:08.539Z,2.40
2022-08-11T07:12:57.243Z,2.77
2022-08-11T07:13:46.423Z,2.27
2022-08-11T07:14:38.581Z,2.10
2022-08-11T07:16:09.065Z,2.40
2022-08-11T07:16:34.897Z,2.37
2022-08-11T07:17:09.362Z,2.60
2022-08-11T07:17:49.903Z,2.53
2022-08-11T07:18:39.621Z,2.30
2022-08-11T07:19:27.623Z,1.90
2022-08-11T07:20:16.967Z,2.20
2022-08-11T07:21:04.622Z,2.40
2022-08-11T07:22:12.929Z,2.10
2022-08-11T07:23:05.638Z,2.00
2022-08-11T07:23:53.682Z,2.47
2022-08-11T07:25:01.365Z,2.37
2022-08-11T07:25:52.002Z,2.13
2022-08-11T07:26:40.582Z,2.13
2022-08-11T07:27:37.709Z,2.50
2022-08-11T07:28:28.149Z,2.53
2022-08-11T07:29:05.547Z,2.00
2022-08-11T07:29:39.372Z,2.43
2022-08-11T07:30:14.578Z,2.10
2022-08-11T07:30:54.051Z,1.97
2022-08-11T07:31:32.165Z,2.40
2022-08-11T07:32:13.766Z,2.20
2022-08-11T07:32:53.483Z,2.30
2022-08-11T07:34:07.557Z,2.10
2022-08-11T07:34:28.155Z,2.50
2022-08-11T07:35:07.273Z,2.10
2022-08-11T07:35:55.639Z,2.20
2022-08-11T07:36:29.297Z,1.90
2022-08-11T07:37:05.333Z,2.10
2022-08-11T07:37:40.778Z,2.30
2022-08-11T07:38:22.698Z,2.07
2022-08-11T07:38:58.178Z,2.20
2022-08-11T07:39:36.002Z,2.10
2022-08-11T07:40:10.352Z,2.37
2022-08-11T07:40:43.553Z,2.20
2022-08-11T07:41:21.202Z,2.00
2022-08-11T07:41:55.169Z,2.00
2022-08-11T07:42:36.468Z,2.23
2022-08-11T07:43:09.133Z,2.20
2022-08-11T07:43:42.214Z,2.20
2022-08-11T07:44:18.036Z,1.80
2022-08-11T07:45:06.005Z,2.00
2022-08-11T07:45:57.749Z,2.27
2022-08-11T07:46:45.171Z,2.40
2022-08-11T07:47:32.503Z,1.97
2022-08-11T07:48:21.284Z,2.30
2022-08-11T07:49:09.085Z,2.30
2022-08-11T07:49:58.389Z,1.90
2022-08-11T07:50:46.102Z,1.90
2022-08-11T07:51:33.991Z,2.17
2022-08-11T07:52:21.602Z,2.70
2022-08-11T07:52:56.622Z,2.00
2022-08-11T07:53:30.011Z,2.87
2022-08-11T07:54:07.722Z,2.00
2022-08-11T07:54:51.237Z,2.60
2022-08-11T07:55:50.252Z,1.87
2022-08-11T07:56:24.889Z,2.10
2022-08-11T07:57:24.497Z,2.33
2022-08-11T07:58:34.048Z,2.40
2022-08-11T08:00:03.627Z,1.87
2022-08-11T08:00:40.710Z,2.60
2022-08-11T08:01:37.589Z,2.00
2022-08-11T08:02:25.790Z,2.30
2022-08-11T08:03:16.784Z,2.37
2022-08-11T08:04:04.468Z,2.10
2022-08-11T08:04:51.830Z,2.10
2022-08-11T08:05:39.191Z,2.03
2022-08-11T08:06:35.642Z,2.40
2022-08-11T08:07:23.951Z,2.20
2022-08-11T08:08:11.923Z,2.53
2022-08-11T08:08:59.515Z,2.50
2022-08-11T08:09:49.850Z,2.20
2022-08-11T08:10:37.775Z,2.33
2022-08-11T08:11:27.064Z,2.30
2022-08-11T08:12:16.516Z,2.17
2022-08-11T08:13:03.836Z,2.60
2022-08-11T08:13:51.286Z,2.47
2022-08-11T08:14:38.744Z,2.30
2022-08-11T08:15:27.682Z,2.60
2022-08-11T08:16:15.103Z,2.30
2022-08-11T08:17:05.034Z,2.47
2022-08-11T08:18:20.556Z,2.70
2022-08-11T08:18:49.695Z,2.60
2022-08-11T08:19:23.423Z,2.60
2022-08-11T08:19:58.543Z,2.50
2022-08-11T08:20:34.967Z,2.30
2022-08-11T08:21:15.656Z,2.47
2022-08-11T08:21:48.307Z,2.40
2022-08-11T08:22:38.625Z,2.43
2022-08-11T08:23:14.697Z,2.27
2022-08-11T08:23:47.577Z,2.20
2022-08-11T08:24:26.309Z,2.43
2022-08-11T08:25:01.638Z,2.47
2022-08-11T08:25:36.045Z,2.30
2022-08-11T08:26:32.742Z,2.40
2022-08-11T08:27:05.522Z,2.33
2022-08-11T08:27:38.725Z,2.27
2022-08-11T08:28:16.299Z,2.53
2022-08-11T08:28:48.899Z,2.13
2022-08-11T08:29:37.250Z,2.37
2022-08-11T08:30:25.606Z,2.30
2022-08-11T08:30:58.621Z,2.00
2022-08-11T08:31:31.605Z,2.77
2022-08-11T08:32:07.855Z,2.47
2022-08-11T08:32:43.715Z,2.30
2022-08-11T08:33:20.042Z,2.10
2022-08-11T08:33:55.297Z,2.10
2022-08-11T08:34:28.158Z,2.40
2022-08-11T08:35:05.662Z,2.43
2022-08-11T08:35:55.870Z,2.00
2022-08-11T08:36:28.573Z,2.40
2022-08-11T08:37:15.758Z,2.60
2022-08-11T08:37:59.098Z,2.60
2022-08-11T08:38:34.087Z,2.67
2022-08-11T08:39:06.572Z,2.77
2022-08-11T08:39:39.025Z,2.30
2022-08-11T08:40:14.556Z,2.50
2022-08-11T08:40:47.286Z,3.07
2022-08-11T08:41:24.369Z,2.80
2022-08-11T08:41:57.810Z,2.70
2022-08-11T08:42:32.635Z,2.83
2022-08-11T08:43:12.747Z,2.53
2022-08-11T08:43:49.068Z,2.37
2022-08-11T08:44:41.205Z,2.57
2022-08-11T08:45:18.727Z,2.63
2022-08-11T08:45:54.553Z,3.20
2022-08-11T08:46:36.125Z,2.57
2022-08-11T08:47:14.030Z,2.60
2022-08-11T08:47:53.034Z,2.70
2022-08-11T08:48:29.221Z,2.30
2022-08-11T08:49:03.774Z,2.57
2022-08-11T08:49:40.368Z,2.27
2022-08-11T08:50:19.482Z,2.43
2022-08-11T08:51:10.957Z,2.30
2022-08-11T08:51:58.648Z,2.47
2022-08-11T08:52:43.890Z,2.80
2022-08-11T08:53:21.057Z,2.73
2022-08-11T08:53:58.445Z,2.53
2022-08-11T08:54:34.346Z,2.90
2022-08-11T08:55:08.461Z,2.97
2022-08-11T08:55:45.607Z,2.50
2022-08-11T08:56:18.554Z,2.60
2022-08-11T08:56:59.141Z,2.97
2022-08-11T08:57:39.147Z,2.80
2022-08-11T08:58:15.674Z,2.70
2022-08-11T08:58:49.454Z,2.50
2022-08-11T08:59:26.789Z,2.20
2022-08-11T09:00:23.547Z,3.00
2022-08-11T09:00:57.346Z,2.70
2022-08-11T09:01:32.432Z,2.77
2022-08-11T09:02:13.145Z,2.40
2022-08-11T09:02:49.011Z,2.80
2022-08-11T09:04:05.183Z,2.80
2022-08-11T09:04:21.043Z,2.77
2022-08-11T09:04:56.377Z,2.60
2022-08-11T09:05:28.809Z,2.27
2022-08-11T09:06:01.184Z,2.50
2022-08-11T09:06:39.890Z,2.43
2022-08-11T09:07:15.547Z,2.10
2022-08-11T09:07:53.606Z,2.10
2022-08-11T09:08:26.213Z,2.87
2022-08-11T09:08:58.618Z,2.37
2022-08-11T09:09:34.159Z,2.47
2022-08-11T09:10:08.069Z,2.73
2022-08-11T09:10:43.087Z,2.37
2022-08-11T09:11:30.769Z,2.40
2022-08-11T09:12:05.606Z,2.80
2022-08-11T09:12:42.802Z,2.67
2022-08-11T09:13:15.314Z,2.77
2022-08-11T09:14:03.132Z,2.70
2022-08-11T09:14:56.141Z,2.70
2022-08-11T09:15:31.338Z,2.27
2022-08-11T09:16:05.750Z,2.70
2022-08-11T09:16:39.371Z,2.40
2022-08-11T09:17:14.372Z,2.50
2022-08-11T09:17:52.174Z,2.50
2022-08-11T09:18:31.642Z,2.60
2022-08-11T09:19:06.079Z,2.70
2022-08-11T09:19:38.450Z,2.10
2022-08-11T09:20:16.210Z,2.60
2022-08-11T09:20:49.589Z,2.57
2022-08-11T09:21:39.270Z,2.40
2022-08-11T09:22:34.281Z,2.60
2022-08-11T09:24:06.674Z,2.03
2022-08-11T09:24:30.804Z,2.20
2022-08-11T09:25:18.906Z,2.13
2022-08-11T09:26:09.191Z,2.40
2022-08-11T09:26:57.347Z,2.03
2022-08-11T09:27:32.257Z,2.33
2022-08-11T09:28:05.256Z,1.90
2022-08-11T09:28:37.887Z,2.10
2022-08-11T09:29:14.217Z,1.73
2022-08-11T09:29:46.668Z,2.17
2022-08-11T09:30:20.478Z,2.60
2022-08-11T09:30:56.214Z,2.30
2022-08-11T09:31:34.597Z,2.00
2022-08-11T09:32:15.258Z,2.40
2022-08-11T09:32:50.250Z,1.80
2022-08-11T09:33:23.779Z,2.10
2022-08-11T09:33:58.750Z,2.33
2022-08-11T09:34:31.301Z,1.90
2022-08-11T09:35:07.510Z,2.37
2022-08-11T09:35:42.635Z,1.90
2022-08-11T09:36:29.916Z,2.20
2022-08-11T09:37:28.653Z,2.00
2022-08-11T09:38:25.810Z,2.43
2022-08-11T09:39:13.967Z,2.10
2022-08-11T09:40:01.701Z,1.80
2022-08-11T09:40:37.027Z,2.00
2022-08-11T09:41:10.669Z,2.03
2022-08-11T09:42:01.458Z,2.03
2022-08-11T09:42:51.981Z,2.03
2022-08-11T09:43:39.870Z,2.10
2022-08-11T09:44:27.618Z,1.87
2022-08-11T09:45:03.349Z,2.40
2022-08-11T09:45:40.100Z,2.23
2022-08-11T09:46:13.563Z,1.87
2022-08-11T09:46:48.619Z,2.13
2022-08-11T09:47:27.556Z,2.30
2022-08-11T09:48:05.572Z,1.90
2022-08-11T09:48:41.628Z,2.10
2022-08-11T09:49:16.629Z,2.00
2022-08-11T09:49:53.826Z,1.90
2022-08-11T09:50:26.415Z,1.90
2022-08-11T09:51:03.551Z,1.80
2022-08-11T09:51:36.532Z,2.33
2022-08-11T09:52:18.150Z,2.30
2022-08-11T09:53:16.975Z,2.50
2022-08-11T09:54:02.847Z,2.20
2022-08-11T09:54:36.994Z,2.00
2022-08-11T09:55:13.811Z,2.10
2022-08-11T09:55:46.670Z,2.20
2022-08-11T09:56:37.722Z,2.63
2022-08-11T09:57:25.075Z,2.30
2022-08-11T09:58:12.393Z,2.10
2022-08-11T09:59:08.179Z,2.30
2022-08-11T09:59:41.131Z,2.00
2022-08-11T10:00:15.490Z,1.80
2022-08-11T10:00:52.355Z,2.30
2022-08-11T10:01:28.787Z,2.10
2022-08-11T10:02:05.261Z,2.27
2022-08-11T10:02:42.091Z,2.07
2022-08-11T10:03:21.521Z,2.30
2022-08-11T10:03:57.985Z,2.30
2022-08-11T10:04:36.490Z,1.70
2022-08-11T10:05:24.334Z,2.00
2022-08-11T10:06:15.407Z,1.63
2022-08-11T10:07:06.985Z,2.13
2022-08-11T10:07:39.727Z,2.10
2022-08-11T10:08:13.235Z,2.00
2022-08-11T10:08:49.594Z,2.20
2022-08-11T10:09:24.201Z,1.80
2022-08-11T10:10:02.452Z,2.20
2022-08-11T10:10:37.370Z,1.70
2022-08-11T10:11:11.909Z,1.87
2022-08-11T10:11:55.512Z,2.20
2022-08-11T10:12:36.189Z,2.00
2022-08-11T10:14:30.778Z,2.03
2022-08-11T10:14:34.396Z,1.90
2022-08-11T10:15:25.718Z,2.03
2022-08-11T10:16:15.404Z,1.70
2022-08-11T10:16:49.857Z,2.00